Time;durP1;ratioP1;P1;durP2;ratioP2;P2;SDS_P1;SDS_P2;PMS_P1;PMS_P2;Temp;Humidity;BMP_temperature;BMP_pressure;BME280_temperature;BME280_humidity;BME280_pressure;Samples;Min_cycle;Max_cycle;Signal;HPM_P1;HPM_P2
2023/05/19 00:01:47;;;;;;;5.03;3.93;;;12.80;99.90;;;;;;4991522;28;20548;-73
2023/05/19 00:04:14;;;;;;;7.97;3.90;;;12.80;99.90;;;;;;4992800;28;20218;-73
2023/05/19 00:06:40;;;;;;;5.40;3.90;;;12.70;99.90;;;;;;4996420;28;20434;-73
2023/05/19 00:09:07;;;;;;;9.30;4.97;;;12.70;99.90;;;;;;4996128;28;20430;-73
2023/05/19 00:11:35;;;;;;;8.33;4.00;;;12.60;99.90;;;;;;4996252;28;20450;-73
2023/05/19 00:14:01;;;;;;;5.57;4.33;;;12.60;99.90;;;;;;4995566;28;20501;-74
2023/05/19 00:16:28;;;;;;;11.73;4.53;;;12.60;99.90;;;;;;4995580;28;20504;-74
2023/05/19 00:18:54;;;;;;;6.07;4.10;;;12.60;99.90;;;;;;4995689;28;20458;-73
2023/05/19 00:21:20;;;;;;;5.20;4.70;;;12.50;99.90;;;;;;4995890;28;20468;-73
2023/05/19 00:23:45;;;;;;;4.57;3.73;;;12.60;99.90;;;;;;4996036;28;20204;-73
2023/05/19 00:26:11;;;;;;;5.77;4.00;;;12.60;99.90;;;;;;4993759;28;20859;-73
2023/05/19 00:28:36;;;;;;;5.80;4.70;;;12.50;99.90;;;;;;4994983;28;20271;-73
2023/05/19 00:31:04;;;;;;;4.47;4.07;;;12.30;99.90;;;;;;4995770;28;20673;-73
2023/05/19 00:33:29;;;;;;;7.67;4.60;;;12.40;99.90;;;;;;4993672;28;20210;-73
2023/05/19 00:35:55;;;;;;;6.83;3.43;;;12.30;99.90;;;;;;4995651;28;20932;-73
2023/05/19 00:38:23;;;;;;;7.07;4.60;;;12.10;99.90;;;;;;4995377;28;20179;-74
2023/05/19 00:40:49;;;;;;;7.20;4.37;;;12.20;99.90;;;;;;4994517;28;20238;-73
2023/05/19 00:43:14;;;;;;;3.73;3.43;;;12.20;99.90;;;;;;4994929;28;20434;-73
2023/05/19 00:45:40;;;;;;;6.40;3.90;;;12.10;99.90;;;;;;4994960;28;20653;-73
2023/05/19 00:48:05;;;;;;;5.60;4.23;;;12.00;99.90;;;;;;4995466;28;20195;-73
2023/05/19 00:50:31;;;;;;;6.80;3.70;;;12.00;99.90;;;;;;4995309;28;20191;-74
2023/05/19 00:52:57;;;;;;;7.00;3.77;;;11.90;99.90;;;;;;4994410;28;20545;-74
2023/05/19 00:55:27;;;;;;;5.10;4.13;;;11.90;99.90;;;;;;4994918;28;20492;-73
2023/05/19 00:57:53;;;;;;;5.93;4.80;;;11.80;99.90;;;;;;4995476;28;20183;-74
2023/05/19 01:00:19;;;;;;;10.57;4.63;;;11.70;99.90;;;;;;4994979;28;20462;-74
2023/05/19 01:02:44;;;;;;;4.90;4.30;;;11.60;99.90;;;;;;4994623;28;20415;-74
2023/05/19 01:05:11;;;;;;;5.03;3.73;;;11.60;99.90;;;;;;4995415;28;20427;-73
2023/05/19 01:07:37;;;;;;;4.90;3.83;;;11.60;99.90;;;;;;4995143;28;20707;-73
2023/05/19 01:10:03;;;;;;;3.87;3.57;;;11.50;99.90;;;;;;4994842;28;20423;-73
2023/05/19 01:12:29;;;;;;;8.50;4.40;;;11.60;99.90;;;;;;4995208;28;20603;-74
2023/05/19 01:14:57;;;;;;;5.33;4.00;;;11.70;99.90;;;;;;4994479;28;20776;-74
2023/05/19 01:17:33;;;;;;;7.80;4.20;;;11.80;99.90;;;;;;4994236;28;20521;-73
2023/05/19 01:20:17;;;;;;;6.43;4.33;;;11.80;99.90;;;;;;4994439;28;20806;-73
2023/05/19 01:23:13;;;;;;;7.00;3.97;;;11.80;99.90;;;;;;4994949;28;20457;-74
2023/05/19 01:25:54;;;;;;;5.47;4.67;;;11.80;99.90;;;;;;4994930;28;20955;-73
2023/05/19 01:28:57;;;;;;;9.97;3.93;;;11.80;99.90;;;;;;4993746;28;20434;-73
2023/05/19 01:31:24;;;;;;;4.67;3.13;;;11.80;99.90;;;;;;4989181;28;20813;-73
2023/05/19 01:33:51;;;;;;;5.40;3.57;;;11.80;99.90;;;;;;4994621;28;20419;-73
2023/05/19 01:36:20;;;;;;;5.60;4.00;;;11.90;99.90;;;;;;4993821;28;20525;-74
2023/05/19 01:38:50;;;;;;;5.63;4.30;;;11.80;99.90;;;;;;4994098;28;20442;-73
2023/05/19 01:41:18;;;;;;;3.97;3.63;;;11.70;99.90;;;;;;4994592;28;21051;-73
2023/05/19 01:43:44;;;;;;;7.43;4.00;;;11.80;99.90;;;;;;4994638;28;20419;-73
2023/05/19 01:46:10;;;;;;;4.80;3.27;;;11.70;99.90;;;;;;4993633;28;20509;-74
2023/05/19 01:48:36;;;;;;;6.63;4.00;;;11.70;99.90;;;;;;4993944;28;20446;-74
2023/05/19 01:51:01;;;;;;;7.50;4.07;;;11.80;99.90;;;;;;4994562;28;20465;-73
2023/05/19 01:53:27;;;;;;;6.00;4.00;;;11.70;99.90;;;;;;4994333;28;20243;-74
2023/05/19 01:55:54;;;;;;;3.77;3.23;;;11.70;99.90;;;;;;4994470;28;20270;-74
2023/05/19 01:58:46;;;;;;;8.47;3.80;;;11.70;99.90;;;;;;4993159;28;20641;-74
2023/05/19 02:01:37;;;;;;;7.43;3.50;;;11.70;99.90;;;;;;4993274;28;20470;-74
2023/05/19 02:04:13;;;;;;;6.30;4.37;;;11.80;99.90;;;;;;4974811;28;20424;-74
2023/05/19 02:06:39;;;;;;;6.70;5.07;;;11.70;99.90;;;;;;4974733;28;20415;-74
2023/05/19 02:09:42;;;;;;;4.37;3.57;;;11.70;99.90;;;;;;4974439;28;20419;-74
2023/05/19 02:12:18;;;;;;;5.17;4.23;;;11.70;99.90;;;;;;4987192;28;20613;-74
2023/05/19 02:15:05;;;;;;;4.90;3.87;;;11.70;99.90;;;;;;4993889;28;20418;-74
2023/05/19 02:17:34;;;;;;;5.10;3.83;;;11.70;99.90;;;;;;4993866;28;20415;-74
2023/05/19 02:20:01;;;;;;;6.47;4.00;;;11.70;99.90;;;;;;4993739;28;20442;-74
2023/05/19 02:22:26;;;;;;;6.60;3.83;;;11.60;99.90;;;;;;4993085;28;20434;-73
2023/05/19 02:24:52;;;;;;;5.90;4.30;;;11.60;99.90;;;;;;4993746;28;20419;-73
2023/05/19 02:27:17;;;;;;;8.90;4.00;;;11.60;99.90;;;;;;4993373;28;20540;-73
2023/05/19 02:29:43;;;;;;;11.70;4.80;;;11.70;99.90;;;;;;4993467;28;20172;-73
2023/05/19 02:32:10;;;;;;;4.47;4.00;;;11.70;99.90;;;;;;4993662;28;20278;-73
2023/05/19 02:34:35;;;;;;;5.40;5.00;;;11.70;99.90;;;;;;4992768;28;20190;-73
2023/05/19 02:37:01;;;;;;;8.33;3.97;;;11.70;99.90;;;;;;4993463;28;20430;-74
2023/05/19 02:39:28;;;;;;;11.10;4.33;;;11.70;99.90;;;;;;4993281;28;20235;-73
2023/05/19 02:41:53;;;;;;;5.93;4.10;;;11.60;99.90;;;;;;4993658;28;20203;-74
2023/05/19 02:44:19;;;;;;;4.43;3.77;;;11.60;99.90;;;;;;4993638;28;20418;-73
2023/05/19 02:46:44;;;;;;;6.20;3.97;;;11.60;99.90;;;;;;4992773;28;20215;-73
2023/05/19 02:49:10;;;;;;;5.97;3.73;;;11.60;99.90;;;;;;4993228;28;20359;-74
2023/05/19 02:51:35;;;;;;;7.87;4.80;;;11.60;99.90;;;;;;4993607;28;20716;-73
2023/05/19 02:54:01;;;;;;;4.70;3.33;;;11.50;99.90;;;;;;4993254;28;20175;-73
2023/05/19 02:56:27;;;;;;;4.80;3.70;;;11.60;99.90;;;;;;4993248;28;20262;-74
2023/05/19 02:58:52;;;;;;;4.00;3.70;;;11.60;99.90;;;;;;4991970;28;20195;-73
2023/05/19 03:01:20;;;;;;;6.47;3.93;;;11.50;99.90;;;;;;4993018;28;20590;-73
2023/05/19 03:03:45;;;;;;;4.90;3.97;;;11.60;99.90;;;;;;4993183;28;20250;-74
2023/05/19 03:06:12;;;;;;;5.23;3.80;;;11.60;99.90;;;;;;4993148;28;20546;-74
2023/05/19 03:08:39;;;;;;;7.43;5.00;;;11.60;99.90;;;;;;4992735;28;20542;-74
2023/05/19 03:11:04;;;;;;;4.43;4.03;;;11.60;99.90;;;;;;4992144;28;20459;-74
2023/05/19 03:13:30;;;;;;;9.20;4.00;;;11.60;99.90;;;;;;4992903;28;20421;-73
2023/05/19 03:15:57;;;;;;;11.20;4.43;;;11.70;99.90;;;;;;4992811;28;20680;-74
2023/05/19 03:18:24;;;;;;;7.27;4.57;;;11.70;99.90;;;;;;4992623;28;20414;-74
2023/05/19 03:20:50;;;;;;;8.03;3.93;;;11.80;99.90;;;;;;4992745;28;20466;-74
2023/05/19 03:23:15;;;;;;;5.30;4.10;;;11.70;99.90;;;;;;4991937;28;20442;-73
2023/05/19 03:25:41;;;;;;;6.10;3.97;;;11.60;99.90;;;;;;4992793;28;20175;-73
2023/05/19 03:28:06;;;;;;;5.30;4.90;;;11.70;99.90;;;;;;4993043;28;20676;-74
2023/05/19 03:30:32;;;;;;;6.13;4.60;;;11.70;99.90;;;;;;4992367;28;20583;-73
2023/05/19 03:33:00;;;;;;;9.00;4.50;;;11.70;99.90;;;;;;4992728;28;20168;-74
2023/05/19 03:35:26;;;;;;;5.70;4.40;;;11.60;99.90;;;;;;4991896;28;20178;-74
2023/05/19 03:37:51;;;;;;;5.83;4.53;;;11.50;99.90;;;;;;4992381;28;20419;-73
2023/05/19 03:40:17;;;;;;;6.90;3.83;;;11.50;99.90;;;;;;4991981;28;20211;-73
2023/05/19 03:42:43;;;;;;;5.00;4.47;;;11.50;99.90;;;;;;4992711;28;20178;-73
2023/05/19 03:45:09;;;;;;;6.87;4.40;;;11.50;99.90;;;;;;4992495;28;20419;-73
2023/05/19 03:47:34;;;;;;;6.70;5.17;;;11.40;99.90;;;;;;4991705;28;20563;-73
2023/05/19 03:50:00;;;;;;;6.27;4.03;;;11.40;99.90;;;;;;4992419;28;20646;-73
2023/05/19 03:52:25;;;;;;;6.60;4.40;;;11.40;99.90;;;;;;4992513;28;20179;-74
2023/05/19 03:54:51;;;;;;;5.97;4.20;;;11.40;99.90;;;;;;4992499;28;20242;-73
2023/05/19 03:57:17;;;;;;;4.23;3.70;;;11.40;99.90;;;;;;4992567;28;20238;-73
2023/05/19 03:59:42;;;;;;;7.17;4.50;;;11.40;99.90;;;;;;4991200;28;20450;-74
2023/05/19 04:02:08;;;;;;;12.17;4.30;;;11.20;99.90;;;;;;4992316;28;20199;-74
2023/05/19 04:04:33;;;;;;;5.60;4.83;;;11.10;99.90;;;;;;4992508;28;20568;-73
2023/05/19 04:07:00;;;;;;;6.17;4.20;;;11.20;99.90;;;;;;4992461;28;20171;-74
2023/05/19 04:09:25;;;;;;;7.33;3.80;;;11.10;99.90;;;;;;4992139;28;20595;-74
2023/05/19 04:11:51;;;;;;;7.57;4.97;;;11.10;99.90;;;;;;4991372;28;20509;-74
2023/05/19 04:14:16;;;;;;;4.53;4.10;;;11.20;99.90;;;;;;4992159;28;20543;-74
2023/05/19 04:16:42;;;;;;;6.70;4.23;;;11.10;99.90;;;;;;4992524;28;20207;-74
2023/05/19 04:19:07;;;;;;;8.33;5.30;;;11.10;99.90;;;;;;4991969;28;20567;-74
2023/05/19 04:21:33;;;;;;;7.77;4.60;;;11.10;99.90;;;;;;4992209;28;20214;-74
2023/05/19 04:23:59;;;;;;;8.33;3.87;;;11.10;99.90;;;;;;4990768;28;20180;-74
2023/05/19 04:26:25;;;;;;;5.23;4.27;;;11.10;99.90;;;;;;4992182;28;20423;-74
2023/05/19 04:28:52;;;;;;;6.13;4.27;;;11.10;99.90;;;;;;4991893;28;20183;-74
2023/05/19 04:31:20;;;;;;;7.60;4.87;;;11.10;99.90;;;;;;4992207;28;21003;-74
2023/05/19 04:33:46;;;;;;;6.50;3.90;;;11.20;99.90;;;;;;4991685;28;20441;-74
2023/05/19 04:36:12;;;;;;;6.10;3.90;;;11.40;99.90;;;;;;4991890;28;20423;-74
2023/05/19 04:38:38;;;;;;;8.63;5.60;;;11.50;99.90;;;;;;4991743;28;20485;-74
2023/05/19 04:41:05;;;;;;;6.80;4.90;;;11.50;99.90;;;;;;4990794;28;20199;-74
2023/05/19 04:43:31;;;;;;;4.90;3.57;;;11.50;99.90;;;;;;4991149;28;20481;-74
2023/05/19 04:45:57;;;;;;;5.20;4.63;;;11.50;99.90;;;;;;4992021;28;20949;-73
2023/05/19 04:48:22;;;;;;;7.30;5.20;;;11.50;99.90;;;;;;4991742;28;20199;-74
2023/05/19 04:50:50;;;;;;;7.60;6.73;;;11.60;99.90;;;;;;4993887;28;20893;-73
2023/05/19 04:53:16;;;;;;;7.00;4.30;;;11.60;99.90;;;;;;4993122;28;20206;-74
2023/05/19 04:55:42;;;;;;;4.63;4.23;;;11.70;99.90;;;;;;4995355;28;20438;-74
2023/05/19 04:58:08;;;;;;;6.03;5.20;;;11.90;99.90;;;;;;4995345;28;20559;-74
2023/05/19 05:00:34;;;;;;;11.87;5.50;;;12.00;99.90;;;;;;4994164;28;20561;-74
2023/05/19 05:03:03;;;;;;;10.03;6.70;;;12.00;99.90;;;;;;4995200;28;20171;-74
2023/05/19 05:05:29;;;;;;;8.17;6.17;;;12.00;99.90;;;;;;4993310;28;20435;-74
2023/05/19 05:07:55;;;;;;;6.93;4.63;;;12.00;99.90;;;;;;4994448;28;20481;-74
2023/05/19 05:10:20;;;;;;;5.80;5.17;;;12.00;99.90;;;;;;4994803;28;20530;-74
2023/05/19 05:12:46;;;;;;;7.63;5.20;;;12.20;99.90;;;;;;4995056;28;20925;-74
2023/05/19 05:15:12;;;;;;;9.20;4.97;;;12.20;99.90;;;;;;4994228;28;20194;-74
2023/05/19 05:17:38;;;;;;;10.77;4.80;;;12.30;99.90;;;;;;4994990;28;20180;-74
2023/05/19 05:20:05;;;;;;;7.53;5.13;;;12.40;99.90;;;;;;4994440;28;20230;-74
2023/05/19 05:22:31;;;;;;;4.83;4.43;;;12.50;99.90;;;;;;4995631;28;20176;-74
2023/05/19 05:24:57;;;;;;;5.50;4.00;;;12.60;99.90;;;;;;4994999;28;20422;-74
2023/05/19 05:27:22;;;;;;;7.43;4.53;;;12.60;99.90;;;;;;4991737;28;20446;-74
2023/05/19 05:29:48;;;;;;;4.50;4.10;;;12.50;99.90;;;;;;4991465;28;20680;-74
2023/05/19 05:32:15;;;;;;;6.20;5.60;;;12.60;99.90;;;;;;4994693;28;20543;-74
2023/05/19 05:34:41;;;;;;;7.00;4.67;;;12.70;99.90;;;;;;4994930;28;20258;-74
2023/05/19 05:37:07;;;;;;;5.63;4.57;;;12.80;99.90;;;;;;4994734;28;20817;-74
2023/05/19 05:39:32;;;;;;;6.00;4.20;;;12.70;99.90;;;;;;4993327;28;20199;-75
2023/05/19 05:41:58;;;;;;;8.57;7.43;;;12.80;99.90;;;;;;4994469;28;20295;-75
2023/05/19 05:44:23;;;;;;;7.90;4.93;;;12.80;99.90;;;;;;4994719;28;20202;-75
2023/05/19 05:46:49;;;;;;;7.37;5.37;;;12.90;99.90;;;;;;4994479;28;20703;-75
2023/05/19 05:49:15;;;;;;;5.83;4.70;;;13.00;99.90;;;;;;4994271;28;20183;-75
2023/05/19 05:51:41;;;;;;;7.60;4.87;;;13.00;99.90;;;;;;4991723;28;20819;-75
2023/05/19 05:54:10;;;;;;;7.50;5.10;;;13.20;99.90;;;;;;4994176;28;20179;-75
2023/05/19 05:56:36;;;;;;;6.20;4.50;;;13.30;99.90;;;;;;4994227;28;20203;-74
2023/05/19 05:59:01;;;;;;;6.93;4.17;;;13.40;99.90;;;;;;4993874;28;21056;-75
2023/05/19 06:01:29;;;;;;;10.10;5.70;;;13.60;99.90;;;;;;4992627;28;20740;-75
2023/05/19 06:03:54;;;;;;;7.70;5.00;;;13.70;99.90;;;;;;4994183;28;20168;-75
2023/05/19 06:06:20;;;;;;;5.97;4.20;;;13.90;99.90;;;;;;4994122;28;20419;-75
2023/05/19 06:08:45;;;;;;;8.17;4.63;;;14.10;99.90;;;;;;4993701;28;20195;-75
2023/05/19 06:11:11;;;;;;;6.03;4.60;;;14.30;99.90;;;;;;4993937;28;20191;-75
2023/05/19 06:13:37;;;;;;;9.00;4.63;;;14.40;99.90;;;;;;4993374;28;20184;-75
2023/05/19 06:16:04;;;;;;;12.20;4.60;;;14.60;99.90;;;;;;4994201;28;20172;-75
2023/05/19 06:18:30;;;;;;;6.73;5.00;;;14.80;99.90;;;;;;4991674;28;20525;-75
2023/05/19 06:20:55;;;;;;;6.33;4.50;;;15.00;99.90;;;;;;4993555;28;20570;-74
2023/05/19 06:23:21;;;;;;;4.93;4.43;;;15.10;99.90;;;;;;4993779;28;20226;-75
2023/05/19 06:25:46;;;;;;;6.70;4.87;;;15.00;99.90;;;;;;4992367;28;20728;-75
2023/05/19 06:28:12;;;;;;;8.20;5.27;;;15.10;99.90;;;;;;4993351;28;20167;-75
2023/05/19 06:30:37;;;;;;;7.07;5.03;;;15.20;99.90;;;;;;4993801;28;20283;-75
2023/05/19 06:33:03;;;;;;;5.47;4.23;;;15.40;99.90;;;;;;4992551;28;20176;-75
2023/05/19 06:35:29;;;;;;;11.17;5.30;;;15.60;99.90;;;;;;4992969;28;20549;-75
2023/05/19 06:37:55;;;;;;;8.90;6.23;;;15.70;99.90;;;;;;4993470;28;20207;-75
2023/05/19 06:40:21;;;;;;;5.67;4.17;;;15.70;99.90;;;;;;4993090;28;20543;-75
2023/05/19 06:42:47;;;;;;;10.00;4.93;;;15.50;99.90;;;;;;4993571;28;20172;-75
2023/05/19 06:45:12;;;;;;;5.80;4.63;;;15.50;99.90;;;;;;4993470;28;20426;-75
2023/05/19 06:47:41;;;;;;;7.57;4.73;;;15.40;99.90;;;;;;4992689;28;20226;-75
2023/05/19 06:50:09;;;;;;;5.63;4.47;;;15.50;99.90;;;;;;4993018;28;20171;-75
2023/05/19 06:52:35;;;;;;;5.97;5.47;;;15.60;99.90;;;;;;4993260;28;20809;-75
2023/05/19 06:55:01;;;;;;;7.03;5.20;;;15.80;99.90;;;;;;4993252;28;20426;-75
2023/05/19 06:57:26;;;;;;;9.03;5.40;;;15.90;99.90;;;;;;4993237;28;20183;-75
2023/05/19 06:59:52;;;;;;;7.60;5.37;;;16.00;99.90;;;;;;4991188;28;20697;-74
2023/05/19 07:02:17;;;;;;;9.73;5.40;;;16.10;99.90;;;;;;4993122;28;20164;-75
2023/05/19 07:04:43;;;;;;;8.00;5.83;;;16.10;99.90;;;;;;4993058;28;20175;-75
2023/05/19 07:07:08;;;;;;;6.20;5.27;;;16.20;99.90;;;;;;4992963;28;20179;-74
2023/05/19 07:09:34;;;;;;;9.57;5.80;;;16.40;99.90;;;;;;4992551;28;20626;-75
2023/05/19 07:12:00;;;;;;;7.30;5.47;;;16.60;99.90;;;;;;4990880;28;20214;-75
2023/05/19 07:14:26;;;;;;;8.07;6.17;;;16.60;99.90;;;;;;4992146;28;20678;-74
2023/05/19 07:16:51;;;;;;;6.60;5.10;;;16.70;99.90;;;;;;4992731;28;20947;-74
2023/05/19 07:19:20;;;;;;;7.30;4.47;;;16.80;99.90;;;;;;4992515;28;20673;-74
2023/05/19 07:21:45;;;;;;;6.67;4.80;;;16.80;99.90;;;;;;4992814;28;20203;-74
2023/05/19 07:24:11;;;;;;;5.27;4.77;;;16.60;99.90;;;;;;4992049;28;20458;-74
2023/05/19 07:26:37;;;;;;;8.83;5.20;;;16.70;99.90;;;;;;4992610;28;20226;-74
2023/05/19 07:29:02;;;;;;;7.43;5.17;;;16.70;99.90;;;;;;4992676;28;20182;-75
2023/05/19 07:31:28;;;;;;;9.40;6.23;;;16.60;99.90;;;;;;4991807;28;20191;-74
2023/05/19 07:33:53;;;;;;;5.20;4.70;;;16.90;99.90;;;;;;4991899;28;20186;-75
2023/05/19 07:36:19;;;;;;;6.07;5.07;;;17.00;99.90;;;;;;4992616;28;20184;-74
2023/05/19 07:38:45;;;;;;;5.40;4.90;;;17.00;99.90;;;;;;4992253;28;20171;-74
2023/05/19 07:41:11;;;;;;;9.93;5.80;;;17.00;99.90;;;;;;4992795;28;20198;-74
2023/05/19 07:43:37;;;;;;;8.47;5.50;;;17.00;99.90;;;;;;4991282;28;20435;-74
2023/05/19 07:46:03;;;;;;;8.60;4.93;;;17.20;99.90;;;;;;4992167;28;20471;-74
2023/05/19 07:48:29;;;;;;;6.27;5.47;;;17.20;99.90;;;;;;4992268;28;20187;-74
2023/05/19 07:50:54;;;;;;;6.67;4.70;;;16.90;99.90;;;;;;4992350;28;20442;-74
2023/05/19 07:53:21;;;;;;;6.17;5.10;;;16.90;99.90;;;;;;4990945;28;20230;-74
2023/05/19 07:55:47;;;;;;;6.33;4.50;;;17.10;99.90;;;;;;4992473;28;20176;-74
2023/05/19 07:58:12;;;;;;;7.67;5.00;;;17.10;99.90;;;;;;4992271;28;20446;-75
2023/05/19 08:00:38;;;;;;;9.30;7.03;;;17.20;99.90;;;;;;4992388;28;20253;-74
2023/05/19 08:03:03;;;;;;;6.50;5.20;;;17.10;99.90;;;;;;4990728;28;20176;-74
2023/05/19 08:05:29;;;;;;;6.87;4.67;;;17.00;99.90;;;;;;4990010;28;20176;-74
2023/05/19 08:07:56;;;;;;;5.40;4.30;;;16.90;99.90;;;;;;4991577;28;20176;-74
2023/05/19 08:10:21;;;;;;;8.57;4.43;;;16.90;99.90;;;;;;4992197;28;20199;-74
2023/05/19 08:12:47;;;;;;;8.80;5.13;;;16.60;99.90;;;;;;4989784;28;21480;-75
2023/05/19 08:15:12;;;;;;;6.00;5.40;;;16.60;99.90;;;;;;4991513;28;20234;-74
2023/05/19 08:17:38;;;;;;;10.30;5.53;;;16.40;99.90;;;;;;4992306;28;20176;-74
2023/05/19 08:20:07;;;;;;;7.23;5.00;;;16.40;99.90;;;;;;4990262;28;20206;-73
2023/05/19 08:22:32;;;;;;;6.97;5.03;;;16.40;99.90;;;;;;4992211;28;20199;-73
2023/05/19 08:24:58;;;;;;;7.63;4.70;;;16.20;99.90;;;;;;4993007;28;20449;-74
2023/05/19 08:27:23;;;;;;;7.33;4.77;;;16.20;99.90;;;;;;4995973;28;20255;-74
2023/05/19 08:29:49;;;;;;;5.13;4.63;;;16.10;99.90;;;;;;4992964;28;20183;-74
2023/05/19 08:32:15;;;;;;;7.80;4.80;;;16.20;99.90;;;;;;4995144;28;20203;-74
2023/05/19 08:34:41;;;;;;;6.23;5.50;;;16.20;99.90;;;;;;4992931;28;20175;-74
2023/05/19 08:37:06;;;;;;;7.00;4.80;;;16.20;99.90;;;;;;4996026;28;20249;-74
2023/05/19 08:39:33;;;;;;;10.63;4.87;;;16.30;99.90;;;;;;4995356;28;20286;-74
2023/05/19 08:41:59;;;;;;;8.90;6.00;;;16.30;99.90;;;;;;4994841;28;20219;-74
2023/05/19 08:44:25;;;;;;;5.63;4.87;;;16.30;99.90;;;;;;4995892;28;20482;-74
2023/05/19 08:46:53;;;;;;;7.80;5.77;;;16.30;99.90;;;;;;4995637;28;20411;-74
2023/05/19 08:49:25;;;;;;;7.40;4.90;;;16.30;99.90;;;;;;4995228;28;20437;-74
2023/05/19 08:52:26;;;;;;;7.27;5.17;;;16.40;99.90;;;;;;4995508;28;20485;-75
2023/05/19 08:54:59;;;;;;;8.70;4.70;;;16.50;99.90;;;;;;4993493;28;20441;-74
2023/05/19 08:57:25;;;;;;;4.80;4.20;;;16.60;99.90;;;;;;4995434;28;20430;-74
2023/05/19 08:59:53;;;;;;;5.83;4.70;;;16.60;99.90;;;;;;4994918;28;20873;-74
2023/05/19 09:02:18;;;;;;;7.93;4.77;;;16.80;99.90;;;;;;4995335;28;20477;-74
2023/05/19 09:04:46;;;;;;;4.30;3.60;;;16.90;99.90;;;;;;4995323;28;20916;-74
2023/05/19 09:07:13;;;;;;;8.23;4.60;;;17.10;99.90;;;;;;4993587;28;20944;-74
2023/05/19 09:09:42;;;;;;;5.73;4.40;;;17.20;99.90;;;;;;4994877;28;20434;-74
2023/05/19 09:12:10;;;;;;;6.00;4.53;;;17.30;99.90;;;;;;4995062;28;20446;-74
2023/05/19 09:14:37;;;;;;;7.13;5.17;;;17.30;99.90;;;;;;4995307;28;20754;-74
2023/05/19 09:17:03;;;;;;;4.37;3.97;;;17.30;99.90;;;;;;4994793;28;20418;-75
2023/05/19 09:19:29;;;;;;;9.20;4.60;;;17.30;99.90;;;;;;4991616;28;20458;-74
2023/05/19 09:22:05;;;;;;;6.53;4.50;;;17.20;99.90;;;;;;4994802;28;20569;-73
2023/05/19 09:24:30;;;;;;;5.43;4.70;;;17.00;99.90;;;;;;4994845;28;20663;-74
2023/05/19 09:26:56;;;;;;;4.40;4.00;;;16.90;99.90;;;;;;4994680;28;20419;-74
2023/05/19 09:29:22;;;;;;;6.87;4.30;;;16.90;99.90;;;;;;4992768;28;20208;-74
2023/05/19 09:31:52;;;;;;;5.40;4.90;;;16.80;99.90;;;;;;4994499;28;20198;-74
2023/05/19 09:34:23;;;;;;;7.87;4.50;;;16.80;99.90;;;;;;4993001;28;20610;-74
2023/05/19 09:36:50;;;;;;;6.37;4.50;;;16.80;99.90;;;;;;4993570;28;20419;-74
2023/05/19 09:39:17;;;;;;;6.60;4.97;;;16.70;99.90;;;;;;4994312;28;21011;-74
2023/05/19 09:41:42;;;;;;;4.63;4.20;;;16.70;99.90;;;;;;4993244;28;20513;-74
2023/05/19 09:44:22;;;;;;;5.67;4.70;;;16.80;99.90;;;;;;4993971;28;21063;-74
2023/05/19 09:46:51;;;;;;;6.17;5.10;;;16.90;99.90;;;;;;4994627;28;20178;-74
2023/05/19 09:49:31;;;;;;;6.83;5.17;;;16.90;99.90;;;;;;4994287;28;20422;-75
2023/05/19 09:51:58;;;;;;;5.53;4.80;;;16.90;99.90;;;;;;4994245;28;20529;-73
2023/05/19 09:54:27;;;;;;;8.30;4.83;;;16.90;99.90;;;;;;4992729;28;20457;-74
2023/05/19 09:57:04;;;;;;;5.77;4.60;;;16.80;99.90;;;;;;4994286;28;20422;-74
2023/05/19 09:59:30;;;;;;;10.97;5.00;;;17.00;99.90;;;;;;4993163;28;20831;-74
2023/05/19 10:01:59;;;;;;;6.87;4.60;;;17.00;99.90;;;;;;4993054;28;20505;-74
2023/05/19 10:04:26;;;;;;;7.27;5.00;;;17.10;99.90;;;;;;4994125;28;20484;-74
2023/05/19 10:06:53;;;;;;;7.17;4.60;;;17.10;99.90;;;;;;4994207;28;20937;-74
2023/05/19 10:09:26;;;;;;;7.50;4.83;;;17.20;99.90;;;;;;4993833;28;20509;-74
2023/05/19 10:11:53;;;;;;;8.37;5.03;;;17.00;99.90;;;;;;4993383;28;20457;-75
2023/05/19 10:14:27;;;;;;;9.07;5.10;;;17.10;99.90;;;;;;4993052;28;20446;-74
2023/05/19 10:16:54;;;;;;;5.70;5.13;;;17.20;99.90;;;;;;4993887;28;20820;-74
2023/05/19 10:19:21;;;;;;;6.30;5.10;;;17.30;99.90;;;;;;4992328;28;20466;-75
2023/05/19 10:21:47;;;;;;;8.70;4.80;;;17.30;99.90;;;;;;4993623;28;20458;-74
2023/05/19 10:24:12;;;;;;;5.30;4.80;;;17.20;99.90;;;;;;4993800;28;20819;-74
2023/05/19 10:26:42;;;;;;;7.43;4.83;;;17.20;99.90;;;;;;4993874;28;20175;-74
2023/05/19 10:29:09;;;;;;;7.10;4.60;;;17.20;99.90;;;;;;4992716;28;20176;-74
2023/05/19 10:31:35;;;;;;;8.00;4.93;;;16.80;99.90;;;;;;4993443;28;20438;-74
2023/05/19 10:34:22;;;;;;;5.07;4.57;;;16.90;99.90;;;;;;4993810;28;20438;-74
2023/05/19 10:36:56;;;;;;;5.67;5.17;;;16.90;99.90;;;;;;4993783;28;20427;-74
2023/05/19 10:39:26;;;;;;;6.60;5.10;;;16.90;99.90;;;;;;4992377;28;20468;-75
2023/05/19 10:42:18;;;;;;;5.40;4.07;;;16.90;99.90;;;;;;4993275;28;20462;-75
2023/05/19 10:45:03;;;;;;;4.87;4.40;;;17.00;99.90;;;;;;4993556;28;20419;-74
2023/05/19 10:47:29;;;;;;;7.57;4.10;;;16.90;99.90;;;;;;4993126;28;20445;-74
2023/05/19 10:49:54;;;;;;;4.67;4.20;;;16.70;99.90;;;;;;4993010;28;20443;-74
2023/05/19 10:52:21;;;;;;;5.40;4.63;;;16.70;99.90;;;;;;4992400;28;20249;-74
2023/05/19 10:54:47;;;;;;;7.53;4.97;;;16.80;99.90;;;;;;4993426;28;20175;-75
2023/05/19 10:57:15;;;;;;;5.40;4.80;;;16.80;99.90;;;;;;4993238;28;20507;-74
2023/05/19 10:59:40;;;;;;;6.90;4.40;;;17.00;99.90;;;;;;4992892;28;20463;-74
2023/05/19 11:02:07;;;;;;;6.37;4.17;;;17.10;99.90;;;;;;4993342;28;20783;-74
2023/05/19 11:04:46;;;;;;;5.77;5.27;;;17.10;99.90;;;;;;4992195;28;20218;-74
2023/05/19 11:07:16;;;;;;;5.90;4.17;;;17.00;99.90;;;;;;4985453;28;20446;-74
2023/05/19 11:09:42;;;;;;;8.33;4.77;;;16.90;99.90;;;;;;4992708;28;20920;-74
2023/05/19 11:12:09;;;;;;;6.87;5.00;;;16.90;99.90;;;;;;4993085;28;20450;-74
2023/05/19 11:14:35;;;;;;;7.20;4.20;;;16.70;99.90;;;;;;4993072;28;20544;-75
2023/05/19 11:17:00;;;;;;;5.20;4.70;;;16.60;99.90;;;;;;4991196;28;20478;-74
2023/05/19 11:19:30;;;;;;;5.80;5.10;;;16.70;99.90;;;;;;4991911;28;20298;-74
2023/05/19 11:22:07;;;;;;;9.17;5.20;;;16.60;99.90;;;;;;4993155;28;20218;-75
2023/05/19 11:24:44;;;;;;;9.73;4.77;;;16.60;99.90;;;;;;4993109;28;20845;-74
2023/05/19 11:27:17;;;;;;;6.20;4.17;;;16.70;99.90;;;;;;4991943;28;20423;-75
2023/05/19 11:29:43;;;;;;;10.13;4.60;;;16.80;99.90;;;;;;4991617;28;20492;-76
2023/05/19 11:32:10;;;;;;;7.33;5.00;;;16.80;99.90;;;;;;4992589;28;20545;-75
2023/05/19 11:34:37;;;;;;;6.07;4.67;;;16.80;99.90;;;;;;4992787;28;20171;-76
2023/05/19 11:37:03;;;;;;;7.40;5.13;;;16.80;99.90;;;;;;4992686;28;20450;-74
2023/05/19 11:39:30;;;;;;;7.20;4.80;;;16.90;99.90;;;;;;4991500;28;20474;-75
2023/05/19 11:41:56;;;;;;;6.80;5.00;;;16.90;99.90;;;;;;4992509;28;20833;-76
2023/05/19 11:44:21;;;;;;;5.30;4.90;;;16.90;99.90;;;;;;4992604;28;20438;-76
2023/05/19 11:46:47;;;;;;;5.67;4.83;;;16.90;99.90;;;;;;4992722;28;20269;-76
2023/05/19 11:49:14;;;;;;;5.20;4.77;;;16.80;99.90;;;;;;4992331;28;20172;-75
2023/05/19 11:51:42;;;;;;;5.30;4.73;;;16.90;99.90;;;;;;4988685;28;20226;-76
2023/05/19 11:54:10;;;;;;;13.93;5.77;;;16.70;99.90;;;;;;4992432;28;20558;-75
2023/05/19 11:56:40;;;;;;;6.37;5.67;;;16.60;99.90;;;;;;4992568;28;20427;-76
2023/05/19 11:59:05;;;;;;;6.67;4.70;;;16.50;99.90;;;;;;4992188;28;20454;-76
2023/05/19 12:01:32;;;;;;;6.40;4.77;;;16.60;99.90;;;;;;4994984;28;20449;-75
2023/05/19 12:03:58;;;;;;;5.80;4.20;;;16.70;99.90;;;;;;4996415;28;20558;-76
2023/05/19 12:06:25;;;;;;;7.20;5.67;;;16.90;99.90;;;;;;4996584;28;20419;-75
2023/05/19 12:08:53;;;;;;;4.53;4.10;;;16.90;99.90;;;;;;4996122;28;20545;-76
2023/05/19 12:11:18;;;;;;;6.47;4.97;;;16.80;99.90;;;;;;4996207;28;20435;-76
2023/05/19 12:13:44;;;;;;;7.53;4.57;;;16.90;99.90;;;;;;4994905;28;20435;-76
2023/05/19 12:16:10;;;;;;;7.77;4.73;;;16.90;99.90;;;;;;4996183;28;20193;-75
2023/05/19 12:18:37;;;;;;;6.40;4.63;;;17.00;99.90;;;;;;4995931;28;20830;-76
2023/05/19 12:21:03;;;;;;;5.60;4.87;;;17.00;99.90;;;;;;4995884;28;20200;-75
2023/05/19 12:23:29;;;;;;;6.63;4.83;;;17.00;99.90;;;;;;4994448;28;20419;-75
2023/05/19 12:25:56;;;;;;;7.13;5.40;;;16.80;99.90;;;;;;4993933;28;20860;-75
2023/05/19 12:28:22;;;;;;;5.87;5.33;;;16.80;99.90;;;;;;4995664;28;20999;-76
2023/05/19 12:30:51;;;;;;;8.10;4.73;;;16.80;99.90;;;;;;4995976;28;20442;-75
2023/05/19 12:33:18;;;;;;;5.77;5.27;;;16.80;99.90;;;;;;4995935;28;20179;-76
2023/05/19 12:35:45;;;;;;;10.73;5.33;;;16.80;99.90;;;;;;4994956;28;20477;-75
2023/05/19 12:38:11;;;;;;;8.47;5.50;;;16.70;99.90;;;;;;4994282;28;20442;-75
2023/05/19 12:40:38;;;;;;;5.40;4.57;;;16.60;99.90;;;;;;4994374;28;20497;-75
2023/05/19 12:43:04;;;;;;;8.13;5.27;;;16.50;99.90;;;;;;4996107;28;20522;-76
2023/05/19 12:45:33;;;;;;;6.13;4.97;;;16.40;99.90;;;;;;4995849;28;20833;-75
2023/05/19 12:48:03;;;;;;;8.63;6.07;;;16.50;99.90;;;;;;4993968;28;20790;-75